Time;durP1;ratioP1;P1;durP2;ratioP2;P2;SDS_P1;SDS_P2;PMS_P1;PMS_P2;Temp;Humidity;BMP_temperature;BMP_pressure;BME280_temperature;BME280_humidity;BME280_pressure;Samples;Min_cycle;Max_cycle;Signal;HPM_P1;HPM_P2
2022/04/16 00:02:00;;;;;;;9.63;6.15;;;;;;;8.46;100.00;103253.09;5112497;28;20135;-31
2022/04/16 00:04:28;;;;;;;6.40;4.38;;;;;;;8.45;100.00;103249.47;5111962;27;20039;-30
2022/04/16 00:06:56;;;;;;;12.00;6.90;;;;;;;8.45;100.00;103246.69;5108465;28;20051;-26
2022/04/16 00:09:24;;;;;;;8.80;6.10;;;;;;;8.44;100.00;103250.53;5110441;28;20059;-33
2022/04/16 00:11:53;;;;;;;10.93;6.38;;;;;;;8.45;100.00;103257.81;5110371;28;20090;-28
2022/04/16 00:14:21;;;;;;;11.05;6.43;;;;;;;8.44;100.00;103253.31;5109652;28;20130;-31
2022/04/16 00:16:49;;;;;;;8.48;5.53;;;;;;;8.43;100.00;103259.97;5110180;28;20493;-33
2022/04/16 00:19:18;;;;;;;9.88;5.95;;;;;;;8.44;100.00;103263.59;5110554;28;20342;-26
2022/04/16 00:21:46;;;;;;;11.38;7.10;;;;;;;8.43;100.00;103251.59;5111131;28;20127;-29
2022/04/16 00:24:14;;;;;;;9.57;6.32;;;;;;;8.43;100.00;103267.44;5112075;28;20032;-29
2022/04/16 00:26:42;;;;;;;10.95;6.88;;;;;;;8.41;100.00;103270.47;5101196;28;20470;-26
2022/04/16 00:29:12;;;;;;;8.88;6.47;;;;;;;8.41;100.00;103266.81;5111930;28;20048;-28
2022/04/16 00:31:40;;;;;;;9.32;5.60;;;;;;;8.39;100.00;103267.06;5111405;28;20071;-31
2022/04/16 00:34:08;;;;;;;5.90;4.07;;;;;;;8.40;100.00;103260.41;5111439;28;20048;-33
2022/04/16 00:36:35;;;;;;;9.85;6.57;;;;;;;8.40;100.00;103268.75;5108228;28;20130;-31
2022/04/16 00:39:03;;;;;;;10.32;6.80;;;;;;;8.40;100.00;103270.69;5110958;28;20400;-30
2022/04/16 00:41:31;;;;;;;11.13;7.03;;;;;;;8.40;100.00;103267.91;5111307;28;20467;-33
2022/04/16 00:43:59;;;;;;;9.63;6.80;;;;;;;8.41;100.00;103276.03;5112195;28;20122;-34
2022/04/16 00:46:28;;;;;;;8.25;6.03;;;;;;;8.41;100.00;103270.47;5112003;28;20062;-26
2022/04/16 00:48:56;;;;;;;7.63;5.50;;;;;;;8.42;100.00;103276.88;5110900;28;20081;-31
2022/04/16 00:51:24;;;;;;;8.98;6.68;;;;;;;8.44;100.00;103280.28;5112024;28;20062;-27
2022/04/16 00:53:52;;;;;;;10.80;6.95;;;;;;;8.45;100.00;103271.72;5112052;28;20048;-30
2022/04/16 00:56:20;;;;;;;8.88;6.20;;;;;;;8.46;100.00;103272.56;5111371;28;20035;-31
2022/04/16 00:58:48;;;;;;;12.98;7.43;;;;;;;8.46;100.00;103281.78;5114779;28;20043;-28
2022/04/16 01:01:16;;;;;;;10.77;6.60;;;;;;;8.46;100.00;103270.66;5116503;27;20040;-37
2022/04/16 01:03:47;;;;;;;9.32;6.60;;;;;;;8.48;100.00;103274.06;5115112;28;20043;-28
2022/04/16 01:06:17;;;;;;;10.52;7.32;;;;;;;8.48;100.00;103270.41;5115935;27;20048;-26
2022/04/16 01:08:45;;;;;;;8.30;5.78;;;;;;;8.49;100.00;103272.13;5115802;28;20492;-30
2022/04/16 01:11:14;;;;;;;12.52;7.60;;;;;;;8.50;100.00;103283.03;5113779;28;20473;-34
2022/04/16 01:13:42;;;;;;;11.45;7.57;;;;;;;8.50;100.00;103274.69;5115717;28;20052;-32
2022/04/16 01:16:10;;;;;;;11.13;7.65;;;;;;;8.50;100.00;103276.63;5114794;28;20040;-31
2022/04/16 01:18:47;;;;;;;12.15;7.78;;;;;;;8.51;100.00;103279.16;5115531;28;20104;-34
2022/04/16 01:21:15;;;;;;;10.38;7.82;;;;;;;8.46;100.00;103290.13;5115664;28;20526;-30
2022/04/16 01:23:44;;;;;;;10.15;7.63;;;;;;;8.41;100.00;103272.38;5114847;28;20047;-35
2022/04/16 01:26:12;;;;;;;8.27;7.18;;;;;;;8.38;100.00;103278.44;5115519;28;20055;-29
2022/04/16 01:28:41;;;;;;;9.43;7.65;;;;;;;8.38;100.00;103267.31;5115863;28;20406;-30
2022/04/16 01:31:08;;;;;;;10.43;7.35;;;;;;;8.39;100.00;103269.00;5114690;28;20381;-27
2022/04/16 01:33:36;;;;;;;12.10;8.30;;;;;;;8.40;100.00;103273.47;5115547;27;20492;-30
2022/04/16 01:36:05;;;;;;;9.15;6.80;;;;;;;8.40;100.00;103273.47;5115484;27;20187;-29
2022/04/16 01:38:33;;;;;;;9.48;7.10;;;;;;;8.35;100.00;103274.16;5113723;28;20521;-29
2022/04/16 01:41:02;;;;;;;12.48;8.48;;;;;;;8.34;100.00;103277.16;5115814;28;20055;-31
2022/04/16 01:43:30;;;;;;;11.27;7.93;;;;;;;8.30;100.00;103287.84;5115072;28;20407;-27
2022/04/16 01:45:58;;;;;;;9.70;7.50;;;;;;;8.25;100.00;103282.97;5114632;28;20070;-27
2022/04/16 01:48:27;;;;;;;12.15;8.07;;;;;;;8.23;100.00;103282.34;5115216;28;20056;-30
2022/04/16 01:50:55;;;;;;;9.70;7.80;;;;;;;8.19;100.00;103288.59;5115201;28;20059;-31
2022/04/16 01:53:23;;;;;;;10.90;8.38;;;;;;;8.17;100.00;103290.75;5114257;28;20519;-33
2022/04/16 01:55:50;;;;;;;11.52;8.13;;;;;;;8.17;100.00;103288.81;5114819;27;20070;-29
2022/04/16 01:58:20;;;;;;;8.32;6.70;;;;;;;8.17;100.00;103286.03;5114428;27;20047;-32
2022/04/16 02:00:49;;;;;;;10.85;8.40;;;;;;;8.18;100.00;103287.75;5114805;28;20134;-33
2022/04/16 02:03:19;;;;;;;13.07;9.10;;;;;;;8.18;100.00;103282.16;5114745;28;20047;-30
2022/04/16 02:05:48;;;;;;;13.55;8.05;;;;;;;8.18;100.00;103281.31;5114118;28;20047;-28
2022/04/16 02:08:16;;;;;;;12.60;8.45;;;;;;;8.18;100.00;103278.53;5114315;28;20044;-30
2022/04/16 02:10:44;;;;;;;13.27;8.70;;;;;;;8.20;100.00;103281.91;5114675;28;20458;-28
2022/04/16 02:13:11;;;;;;;11.80;8.70;;;;;;;8.21;100.00;103275.28;5113990;28;20043;-30
2022/04/16 02:15:41;;;;;;;13.73;9.23;;;;;;;8.19;100.00;103275.50;5114532;28;20055;-31
2022/04/16 02:18:08;;;;;;;12.95;9.07;;;;;;;8.18;100.00;103264.63;5114526;28;20078;-31
2022/04/16 02:20:37;;;;;;;12.65;9.18;;;;;;;8.17;100.00;103280.47;5113541;28;20100;-29
2022/04/16 02:23:04;;;;;;;15.85;10.32;;;;;;;8.18;100.00;103278.53;5114656;28;20047;-29
2022/04/16 02:25:33;;;;;;;17.15;9.60;;;;;;;8.18;100.00;103281.31;5114471;28;20043;-29
2022/04/16 02:28:00;;;;;;;15.02;10.98;;;;;;;8.16;100.00;103275.13;5113729;28;20052;-32
2022/04/16 02:30:30;;;;;;;15.05;10.68;;;;;;;8.15;100.00;103270.63;5114212;28;20756;-30
2022/04/16 02:33:01;;;;;;;15.95;10.38;;;;;;;8.13;100.00;103270.84;5114337;28;20043;-35
2022/04/16 02:35:29;;;;;;;11.32;8.13;;;;;;;8.15;100.00;103270.63;5113051;28;20051;-32
2022/04/16 02:37:57;;;;;;;12.63;9.45;;;;;;;8.16;100.00;103284.31;5113427;28;20046;-30
2022/04/16 02:40:25;;;;;;;12.77;10.35;;;;;;;8.16;100.00;103272.34;5112913;28;20560;-30
2022/04/16 02:42:52;;;;;;;15.18;9.90;;;;;;;8.16;100.00;103267.63;5114207;28;20036;-24
2022/04/16 02:48:08;;;;;;;13.95;9.70;;;;;;;8.12;100.00;103273.88;5108245;28;20040;-31
2022/04/16 02:50:35;;;;;;;15.55;10.38;;;;;;;8.09;100.00;103265.97;5114135;28;20040;-30
2022/04/16 02:53:03;;;;;;;11.20;8.27;;;;;;;8.08;100.00;103270.66;5113681;28;20048;-27
2022/04/16 02:55:31;;;;;;;10.98;7.35;;;;;;;8.07;100.00;103273.69;5113184;28;20051;-27
2022/04/16 02:57:59;;;;;;;11.85;9.38;;;;;;;8.05;100.00;103273.03;5113710;28;20157;-30
2022/04/16 03:00:27;;;;;;;9.38;7.18;;;;;;;8.02;100.00;103277.13;5113445;28;20058;-28
2022/04/16 03:02:54;;;;;;;12.90;9.68;;;;;;;8.00;100.00;103283.97;5113007;28;20413;-32
2022/04/16 03:05:23;;;;;;;9.50;6.13;;;;;;;7.97;100.00;103290.84;5113528;28;20051;-30
2022/04/16 03:07:51;;;;;;;10.77;8.48;;;;;;;7.95;100.00;103287.44;5113668;28;20058;-29
2022/04/16 03:10:19;;;;;;;8.52;6.30;;;;;;;7.92;100.00;103291.53;5112721;28;20396;-29
2022/04/16 03:12:51;;;;;;;8.15;5.57;;;;;;;7.90;100.00;103296.44;5113319;27;20039;-29
2022/04/16 03:18:08;;;;;;;8.80;6.80;;;;;;;7.82;100.00;103293.91;5113472;28;20130;-29
2022/04/16 03:20:38;;;;;;;6.15;4.82;;;;;;;7.78;100.00;103289.88;5112509;28;20047;-29
2022/04/16 03:23:06;;;;;;;6.78;4.53;;;;;;;7.73;100.00;103295.25;5112480;28;20043;-31
2022/04/16 03:25:34;;;;;;;7.00;5.32;;;;;;;7.68;100.00;103294.19;5111749;28;20487;-31
2022/04/16 03:28:03;;;;;;;5.93;4.63;;;;;;;7.64;100.00;103304.03;5113643;28;20105;-25
2022/04/16 03:30:31;;;;;;;6.47;4.80;;;;;;;7.60;100.00;103311.94;5112340;28;20072;-29
2022/04/16 03:32:59;;;;;;;6.15;4.25;;;;;;;7.56;100.00;103307.94;5111853;28;20412;-30
2022/04/16 03:35:26;;;;;;;6.10;4.88;;;;;;;7.52;100.00;103315.84;5113024;28;20092;-28
2022/04/16 03:37:56;;;;;;;5.75;4.03;;;;;;;7.49;100.00;103319.06;5111851;28;20051;-25
2022/04/16 03:40:26;;;;;;;5.82;3.45;;;;;;;7.48;100.00;103314.56;5112897;28;20134;-26
2022/04/16 03:42:57;;;;;;;6.22;4.32;;;;;;;7.48;100.00;103317.34;5112983;28;20146;-26
2022/04/16 03:45:27;;;;;;;8.65;6.15;;;;;;;7.46;100.00;103316.72;5112258;28;20052;-32
2022/04/16 03:47:56;;;;;;;8.05;4.63;;;;;;;7.42;100.00;103309.03;5112508;28;20048;-31
2022/04/16 03:50:25;;;;;;;7.78;5.63;;;;;;;7.37;100.00;103318.03;5113380;28;20048;-32
2022/04/16 03:52:57;;;;;;;10.23;7.35;;;;;;;7.33;100.00;103313.13;5112064;28;20043;-28
2022/04/16 04:01:00;;;;;;;8.00;5.10;;;;;;;7.16;100.00;103333.03;5092642;28;20043;-31
2022/04/16 04:03:28;;;;;;;7.28;4.70;;;;;;;7.12;100.00;103339.22;5097732;28;20044;-30
2022/04/16 04:05:58;;;;;;;4.72;3.78;;;;;;;7.07;100.00;103334.31;5111932;27;20078;-27
2022/04/16 04:08:27;;;;;;;5.22;3.58;;;;;;;7.02;100.00;103336.88;5111796;28;20047;-27
2022/04/16 04:10:55;;;;;;;5.55;3.58;;;;;;;6.97;100.00;103333.91;5112454;28;20066;-31
2022/04/16 04:13:24;;;;;;;5.32;4.05;;;;;;;6.95;100.00;103344.38;5111436;28;20058;-27
2022/04/16 04:15:52;;;;;;;5.55;4.10;;;;;;;6.90;100.00;103341.38;5111624;28;20036;-27
2022/04/16 04:18:22;;;;;;;5.07;3.90;;;;;;;6.85;100.00;103344.78;5112389;28;20047;-31
2022/04/16 04:20:50;;;;;;;6.25;3.92;;;;;;;6.82;100.00;103336.03;5110302;28;20083;-29
2022/04/16 04:23:18;;;;;;;7.07;4.50;;;;;;;6.77;100.00;103342.25;5112284;28;20138;-30
2022/04/16 04:25:48;;;;;;;6.30;4.32;;;;;;;6.72;100.00;103353.13;5111966;28;20044;-28
2022/04/16 04:28:15;;;;;;;7.07;5.15;;;;;;;6.67;100.00;103346.50;5111226;28;20062;-31
2022/04/16 04:30:44;;;;;;;6.38;4.43;;;;;;;6.62;100.00;103354.59;5112050;28;20051;-26
2022/04/16 04:33:12;;;;;;;6.93;4.55;;;;;;;6.57;100.00;103346.94;5110884;28;20509;-29
2022/04/16 04:35:40;;;;;;;6.82;4.30;;;;;;;6.50;100.00;103359.91;5111898;28;20589;-29
2022/04/16 04:38:07;;;;;;;5.57;3.75;;;;;;;6.44;100.00;103350.50;5110904;28;20054;-28
2022/04/16 04:40:35;;;;;;;4.55;3.53;;;;;;;6.41;100.00;103350.94;5110685;28;20513;-27
2022/04/16 04:43:04;;;;;;;5.95;4.13;;;;;;;6.38;100.00;103351.38;5111934;28;20043;-24
2022/04/16 04:45:33;;;;;;;6.32;4.78;;;;;;;6.33;100.00;103353.91;5112199;28;20083;-36
2022/04/16 04:48:00;;;;;;;5.93;4.07;;;;;;;6.30;100.00;103365.44;5111381;28;20065;-31
2022/04/16 04:50:28;;;;;;;5.28;3.83;;;;;;;6.27;100.00;103362.22;5100636;28;20136;-32
2022/04/16 04:52:56;;;;;;;5.50;3.67;;;;;;;6.25;100.00;103369.88;5111774;28;20058;-27
2022/04/16 04:55:24;;;;;;;8.57;5.43;;;;;;;6.23;100.00;103373.72;5103204;28;20083;-28
2022/04/16 04:57:54;;;;;;;10.45;6.95;;;;;;;6.23;100.00;103375.63;5099713;28;20052;-30
2022/04/16 05:00:23;;;;;;;8.30;5.90;;;;;;;6.24;100.00;103371.81;5107254;28;20224;-32
2022/04/16 05:02:51;;;;;;;7.25;5.45;;;;;;;6.26;100.00;103375.22;5110424;28;20046;-31
2022/04/16 05:05:19;;;;;;;10.82;7.13;;;;;;;6.30;100.00;103373.75;5108548;28;20064;-27
2022/04/16 05:07:47;;;;;;;8.60;6.53;;;;;;;6.35;100.00;103378.66;5110863;28;20044;-31
2022/04/16 05:10:15;;;;;;;11.27;7.70;;;;;;;6.38;100.00;103379.13;5110040;28;20082;-31
2022/04/16 05:12:43;;;;;;;12.98;8.88;;;;;;;6.46;100.00;103381.66;5110480;28;20040;-29
2022/04/16 05:15:10;;;;;;;9.75;6.88;;;;;;;6.53;100.00;103390.88;5109959;28;20054;-33
2022/04/16 05:17:40;;;;;;;10.02;7.75;;;;;;;6.58;100.00;103384.69;5110232;28;20508;-24
2022/04/16 05:20:09;;;;;;;13.40;9.02;;;;;;;6.63;100.00;103392.38;5110972;28;20043;-28
2022/04/16 05:22:37;;;;;;;10.45;7.38;;;;;;;6.65;100.00;103398.56;5109846;28;20139;-34
2022/04/16 05:25:06;;;;;;;14.60;8.23;;;;;;;6.66;100.00;103391.94;5103134;28;20039;-33
2022/04/16 05:27:35;;;;;;;14.30;8.70;;;;;;;6.68;100.00;103406.47;5110615;28;20529;-30
2022/04/16 05:30:11;;;;;;;10.20;7.40;;;;;;;6.72;100.00;103399.44;5109636;28;20055;-30
2022/04/16 05:32:42;;;;;;;14.40;8.73;;;;;;;6.79;100.00;103409.50;5110542;28;20055;-35
2022/04/16 05:35:11;;;;;;;11.27;8.45;;;;;;;6.85;100.00;103402.22;5100973;28;20071;-25
2022/04/16 05:37:39;;;;;;;14.57;11.02;;;;;;;6.92;100.00;103414.19;5109529;28;20082;-32
2022/04/16 05:40:08;;;;;;;17.77;11.68;;;;;;;7.00;100.00;103413.09;5110575;28;20044;-26
2022/04/16 05:42:40;;;;;;;18.33;12.48;;;;;;;7.09;100.00;103421.03;5110138;28;20124;-27
2022/04/16 05:45:08;;;;;;;17.00;11.85;;;;;;;7.18;100.00;103418.91;5113303;28;20039;-29
2022/04/16 05:47:38;;;;;;;16.55;11.77;;;;;;;7.26;100.00;103415.88;5113903;28;20416;-31
2022/04/16 05:50:08;;;;;;;19.42;13.63;;;;;;;7.34;100.00;103417.59;5113056;28;20044;-31
2022/04/16 05:52:37;;;;;;;18.88;13.23;;;;;;;7.39;100.00;103427.00;5102382;28;20519;-28
2022/04/16 05:55:05;;;;;;;19.67;13.98;;;;;;;7.47;100.00;103418.44;5113753;28;20044;-31
2022/04/16 05:57:33;;;;;;;19.75;13.68;;;;;;;7.54;100.00;103418.44;5111850;28;20497;-33
2022/04/16 06:00:01;;;;;;;16.98;11.52;;;;;;;7.60;100.00;103423.09;5113811;28;20392;-26
2022/04/16 06:02:29;;;;;;;20.15;14.07;;;;;;;7.68;100.00;103424.81;5113938;28;20043;-27
2022/04/16 06:04:56;;;;;;;18.08;11.82;;;;;;;7.75;100.00;103426.50;5111221;28;20464;-33
2022/04/16 06:07:25;;;;;;;17.70;12.43;;;;;;;7.86;100.00;103433.31;5112860;28;20074;-31
2022/04/16 06:09:53;;;;;;;17.15;12.02;;;;;;;7.92;100.00;103426.88;5114142;28;20489;-25
2022/04/16 06:12:21;;;;;;;23.20;14.85;;;;;;;8.00;100.00;103431.34;5112898;28;20054;-28
2022/04/16 06:14:51;;;;;;;18.90;13.45;;;;;;;8.08;100.00;103425.53;5113548;28;20105;-31
2022/04/16 06:17:19;;;;;;;17.27;12.35;;;;;;;8.13;100.00;103437.72;5113635;28;20043;-26
2022/04/16 06:19:46;;;;;;;25.50;16.52;;;;;;;8.19;100.00;103438.78;5111224;28;20047;-27
2022/04/16 06:22:20;;;;;;;25.70;15.55;;;;;;;8.25;100.00;103429.53;5113282;28;20127;-31
2022/04/16 06:24:49;;;;;;;26.33;17.95;;;;;;;8.32;100.00;103435.97;5113569;28;20116;-30
2022/04/16 06:27:17;;;;;;;27.05;17.23;;;;;;;8.38;100.00;103437.00;5112649;28;20051;-30
2022/04/16 06:29:45;;;;;;;32.55;19.92;;;;;;;8.44;100.00;103434.19;5113508;28;20134;-26
2022/04/16 06:32:13;;;;;;;35.60;22.52;;;;;;;8.47;100.00;103436.53;5113157;28;20039;-27
2022/04/16 06:34:42;;;;;;;33.10;21.15;;;;;;;8.51;100.00;103440.56;5112297;28;20048;-31
2022/04/16 06:37:09;;;;;;;29.25;20.38;;;;;;;8.53;100.00;103446.78;5112902;28;20050;-28
2022/04/16 06:39:37;;;;;;;26.08;18.10;;;;;;;8.57;100.00;103450.81;5112145;28;20151;-26
2022/04/16 06:42:07;;;;;;;28.67;19.30;;;;;;;8.61;100.00;103452.06;5112688;28;20048;-27
2022/04/16 06:44:34;;;;;;;31.00;21.30;;;;;;;8.63;100.00;103455.47;5112726;28;20043;-26
2022/04/16 06:47:02;;;;;;;31.27;20.65;;;;;;;8.62;100.00;103456.56;5112390;28;20130;-27
2022/04/16 06:49:30;;;;;;;31.70;20.60;;;;;;;8.62;100.00;103464.03;5113602;28;20047;-35
2022/04/16 06:51:57;;;;;;;30.75;20.55;;;;;;;8.59;100.00;103457.00;5114024;28;20092;-33
2022/04/16 06:54:25;;;;;;;33.63;21.35;;;;;;;8.57;100.00;103467.53;5112724;28;20048;-28
2022/04/16 06:56:53;;;;;;;29.17;20.08;;;;;;;8.56;100.00;103471.38;5111857;28;20051;-30
2022/04/16 06:59:22;;;;;;;29.67;19.35;;;;;;;8.60;100.00;103478.19;5109512;28;20047;-31
2022/04/16 07:01:50;;;;;;;31.55;21.73;;;;;;;8.56;100.00;103471.38;5112709;28;20043;-28
2022/04/16 07:04:17;;;;;;;26.40;19.40;;;;;;;8.58;100.00;103477.59;5113256;28;20126;-28
2022/04/16 07:06:45;;;;;;;28.02;20.65;;;;;;;8.57;100.00;103475.88;5113649;28;20071;-29
2022/04/16 07:09:13;;;;;;;27.30;19.15;;;;;;;8.60;100.00;103478.19;5112653;28;20051;-29
2022/04/16 07:11:41;;;;;;;26.67;19.17;;;;;;;8.63;100.00;103474.97;5110647;28;20412;-29
2022/04/16 07:14:08;;;;;;;31.05;20.52;;;;;;;8.68;100.00;103481.78;5113438;28;20052;-30
2022/04/16 07:16:37;;;;;;;23.35;17.30;;;;;;;8.73;100.00;103476.44;5112008;28;20047;-34
2022/04/16 07:19:05;;;;;;;28.55;17.77;;;;;;;8.79;100.00;103484.72;5113085;28;20125;-25
2022/04/16 07:21:33;;;;;;;28.98;20.13;;;;;;;8.82;100.00;103489.00;5113273;28;20052;-33
2022/04/16 07:24:01;;;;;;;26.67;18.88;;;;;;;8.83;100.00;103479.56;5112357;28;20039;-28
2022/04/16 07:26:29;;;;;;;29.98;21.08;;;;;;;8.84;100.00;103479.34;5112971;28;20488;-29
2022/04/16 07:28:57;;;;;;;31.15;21.05;;;;;;;8.80;100.00;103480.84;5112174;28;20381;-30
2022/04/16 07:31:25;;;;;;;26.85;19.02;;;;;;;8.78;100.00;103476.63;5113035;28;20054;-30
2022/04/16 07:33:54;;;;;;;28.40;20.25;;;;;;;8.75;100.00;103469.56;5113058;28;20047;-30
2022/04/16 07:36:22;;;;;;;22.88;16.33;;;;;;;8.77;100.00;103474.91;5112278;28;20044;-27
2022/04/16 07:38:50;;;;;;;28.25;19.25;;;;;;;8.81;100.00;103476.13;5112846;28;20067;-32
2022/04/16 07:41:17;;;;;;;26.33;19.05;;;;;;;8.78;100.00;103477.47;5112711;28;20143;-30
2022/04/16 07:43:45;;;;;;;29.33;20.30;;;;;;;8.79;100.00;103469.97;5111883;28;20043;-30
2022/04/16 07:46:15;;;;;;;23.80;16.83;;;;;;;8.82;100.00;103477.84;5112900;28;20134;-26
2022/04/16 07:48:42;;;;;;;21.77;15.88;;;;;;;8.83;100.00;103479.56;5112117;28;20051;-30
2022/04/16 07:51:12;;;;;;;28.98;20.33;;;;;;;8.88;100.00;103477.81;5111495;28;20039;-28
2022/04/16 07:53:39;;;;;;;27.30;18.25;;;;;;;8.91;100.00;103480.16;5112613;28;20044;-31
2022/04/16 07:56:07;;;;;;;27.52;19.58;;;;;;;8.91;100.00;103490.44;5112314;28;20052;-31
2022/04/16 07:58:35;;;;;;;24.52;17.42;;;;;;;8.87;100.00;103490.03;5112346;28;20047;-25
2022/04/16 08:01:03;;;;;;;26.83;18.85;;;;;;;8.88;100.00;103485.31;5112272;28;20055;-28
2022/04/16 08:03:30;;;;;;;25.65;17.63;;;;;;;8.90;100.00;103475.66;5112574;28;20054;-33
2022/04/16 08:05:58;;;;;;;29.35;20.25;;;;;;;8.92;100.00;103478.22;5111139;28;20048;-25
2022/04/16 08:08:27;;;;;;;24.83;17.65;;;;;;;8.92;100.00;103478.22;5112168;28;20040;-24
2022/04/16 08:10:55;;;;;;;27.73;19.63;;;;;;;8.92;100.00;103484.66;5112133;28;20048;-30
2022/04/16 08:13:24;;;;;;;27.33;18.50;;;;;;;8.88;100.00;103483.38;5112154;28;20043;-34
2022/04/16 08:15:52;;;;;;;30.75;20.80;;;;;;;8.94;100.00;103487.22;5112312;28;20071;-30
2022/04/16 08:18:20;;;;;;;27.23;19.58;;;;;;;8.96;100.00;103491.50;5111537;28;20431;-30
2022/04/16 08:20:48;;;;;;;28.42;20.40;;;;;;;8.97;100.00;103495.13;5111811;28;20050;-28
2022/04/16 08:23:17;;;;;;;30.73;20.73;;;;;;;8.98;100.00;103506.03;5111773;28;20044;-27
2022/04/16 08:25:46;;;;;;;26.98;18.55;;;;;;;8.98;100.00;103494.06;5111219;28;20051;-26
2022/04/16 08:28:15;;;;;;;27.50;19.13;;;;;;;8.97;100.00;103504.34;5112197;28;20058;-27
2022/04/16 08:30:43;;;;;;;27.40;18.77;;;;;;;8.99;100.00;103507.72;5111909;28;20054;-31
2022/04/16 08:33:15;;;;;;;28.00;19.65;;;;;;;8.99;100.00;103498.53;5111275;28;20039;-31
2022/04/16 08:35:44;;;;;;;26.90;18.33;;;;;;;9.02;100.00;103506.44;5112034;28;20044;-31
2022/04/16 08:38:12;;;;;;;28.08;19.85;;;;;;;9.08;100.00;103508.31;5112118;28;20507;-30
2022/04/16 08:40:41;;;;;;;25.70;18.42;;;;;;;9.09;100.00;103507.25;5111228;28;20055;-32
2022/04/16 08:43:14;;;;;;;24.33;18.02;;;;;;;9.13;100.00;103505.72;5100713;28;20112;-27
2022/04/16 08:45:43;;;;;;;26.23;18.60;;;;;;;9.22;100.00;103509.06;5111531;28;20058;-30
2022/04/16 08:48:14;;;;;;;27.02;18.00;;;;;;;9.32;100.00;103489.94;5110838;28;20062;-34
2022/04/16 08:50:43;;;;;;;29.35;21.17;;;;;;;9.42;100.00;103500.56;5111784;28;20385;-24
2022/04/16 08:53:11;;;;;;;25.40;18.42;;;;;;;9.48;100.00;103496.88;5111100;28;20035;-29
2022/04/16 08:55:39;;;;;;;25.20;18.73;;;;;;;9.54;100.00;103496.81;5112056;28;20044;-28
2022/04/16 08:58:07;;;;;;;26.73;18.52;;;;;;;9.63;100.00;103494.59;5110929;28;20064;-31
2022/04/16 09:00:36;;;;;;;26.13;18.40;;;;;;;9.61;100.00;103500.38;5110255;28;20055;-32
2022/04/16 09:03:06;;;;;;;26.75;19.60;;;;;;;9.65;100.00;103498.00;5109096;28;20404;-24
2022/04/16 09:05:34;;;;;;;22.27;15.35;;;;;;;9.78;100.00;103500.69;5109622;28;20039;-26
2022/04/16 09:08:04;;;;;;;25.60;18.75;;;;;;;9.92;100.00;103491.09;5110866;28;20164;-30
2022/04/16 09:10:34;;;;;;;20.70;15.80;;;;;;;10.10;100.00;103500.56;5111767;28;20396;-33
2022/04/16 09:13:04;;;;;;;21.15;15.88;;;;;;;10.28;100.00;103495.88;5111706;28;20050;-28
2022/04/16 09:15:34;;;;;;;20.92;15.50;;;;;;;10.42;100.00;103502.13;5111076;28;20048;-30
2022/04/16 09:18:05;;;;;;;21.58;16.65;;;;;;;10.54;100.00;103503.06;5111807;28;20416;-29
2022/04/16 09:20:35;;;;;;;20.30;15.38;;;;;;;10.70;100.00;103491.25;5115697;27;20047;-25
2022/04/16 09:23:15;;;;;;;19.08;14.82;;;;;;;11.06;100.00;103503.41;5107389;28;20044;-31
2022/04/16 09:25:44;;;;;;;18.73;13.13;;;;;;;11.44;100.00;103491.81;5115377;28;20515;-25
2022/04/16 09:28:14;;;;;;;17.65;13.38;;;;;;;11.85;100.00;103496.50;5108022;28;20400;-31
2022/04/16 09:30:49;;;;;;;17.75;13.85;;;;;;;12.18;100.00;103490.28;5115263;28;20073;-34
2022/04/16 09:33:18;;;;;;;17.58;13.45;;;;;;;12.41;100.00;103494.97;5115123;28;20139;-26
2022/04/16 09:35:47;;;;;;;16.75;12.75;;;;;;;12.68;100.00;103492.47;5114556;28;20057;-27
2022/04/16 09:38:15;;;;;;;15.68;13.00;;;;;;;12.95;99.31;103481.50;5114615;28;20048;-30
2022/04/16 09:40:47;;;;;;;15.88;12.80;;;;;;;13.31;99.90;103488.66;5113981;28;20055;-27
2022/04/16 09:43:15;;;;;;;16.80;12.47;;;;;;;13.67;97.52;103482.53;5113389;28;20039;-31
2022/04/16 09:45:43;;;;;;;16.27;12.65;;;;;;;13.92;97.04;103484.03;5114709;28;20058;-30
2022/04/16 09:48:13;;;;;;;15.00;12.15;;;;;;;14.18;95.76;103482.47;5114926;28;20473;-28
2022/04/16 09:50:44;;;;;;;15.18;11.30;;;;;;;14.43;93.49;103483.66;5111233;28;20044;-28
2022/04/16 09:53:12;;;;;;;18.40;12.25;;;;;;;14.92;93.35;103499.72;5114396;28;20538;-30
2022/04/16 09:55:42;;;;;;;12.77;10.65;;;;;;;15.17;88.75;103485.91;5102855;28;20051;-33
2022/04/16 09:58:12;;;;;;;15.20;11.60;;;;;;;15.24;86.65;103486.53;5112833;28;20508;-33
2022/04/16 10:00:41;;;;;;;15.23;11.25;;;;;;;15.42;86.14;103483.31;5113457;28;20492;-32
2022/04/16 10:03:32;;;;;;;14.13;10.88;;;;;;;15.33;82.77;103482.13;5112448;28;20043;-26
2022/04/16 10:06:02;;;;;;;13.43;9.63;;;;;;;15.27;83.08;103479.53;5102327;28;20043;-32
2022/04/16 10:08:31;;;;;;;15.77;12.55;;;;;;;15.47;83.30;103477.75;5112309;28;20051;-30
2022/04/16 10:11:03;;;;;;;13.60;10.85;;;;;;;15.68;80.73;103480.75;5110472;27;20047;-30
2022/04/16 10:13:38;;;;;;;12.17;9.47;;;;;;;16.21;82.10;103479.69;5113259;28;20446;-31
2022/04/16 10:16:15;;;;;;;13.98;11.48;;;;;;;16.90;78.34;103484.22;5113363;27;20516;-30
2022/04/16 10:18:45;;;;;;;12.65;10.90;;;;;;;17.16;73.82;103484.00;5113030;28;20040;-28
2022/04/16 10:21:18;;;;;;;14.32;11.30;;;;;;;17.28;73.16;103472.44;5113335;27;20061;-26
2022/04/16 10:23:47;;;;;;;13.30;10.75;;;;;;;17.46;72.64;103469.06;5103189;28;20075;-27
2022/04/16 10:26:16;;;;;;;12.82;10.63;;;;;;;17.87;70.94;103471.88;5108274;28;20043;-33
2022/04/16 10:28:45;;;;;;;12.45;10.25;;;;;;;18.16;69.16;103467.28;5113488;28;20071;-31
2022/04/16 10:31:20;;;;;;;11.00;9.25;;;;;;;18.44;65.80;103462.09;5112721;28;20051;-29
2022/04/16 10:33:59;;;;;;;9.93;8.93;;;;;;;18.21;59.74;103460.75;5112826;28;20048;-29
2022/04/16 10:36:32;;;;;;;10.57;8.70;;;;;;;18.24;65.29;103455.38;5112878;28;20467;-36
2022/04/16 10:39:01;;;;;;;10.02;8.98;;;;;;;18.51;64.68;103456.97;5112153;28;20078;-30
2022/04/16 10:41:29;;;;;;;10.45;8.85;;;;;;;18.95;62.05;103450.53;5112445;28;20051;-29
2022/04/16 10:44:00;;;;;;;11.15;9.77;;;;;;;19.09;60.38;103458.06;5109511;28;20048;-33
2022/04/16 10:46:43;;;;;;;9.10;7.37;;;;;;;19.23;58.94;103449.75;5112012;28;20054;-31
2022/04/16 10:49:12;;;;;;;10.25;9.15;;;;;;;19.31;59.88;103448.28;5109926;28;20082;-32
2022/04/16 10:51:42;;;;;;;12.38;8.80;;;;;;;19.46;58.66;103442.47;5110950;28;20050;-29
2022/04/16 10:54:10;;;;;;;11.20;8.95;;;;;;;19.35;56.70;103440.88;5111175;28;20046;-32
2022/04/16 10:56:40;;;;;;;10.25;8.25;;;;;;;19.01;56.60;103447.34;5112411;28;20062;-35
2022/04/16 10:59:10;;;;;;;10.63;8.88;;;;;;;18.70;55.24;103449.53;5112589;28;20142;-28
2022/04/16 11:01:39;;;;;;;11.13;9.20;;;;;;;18.40;56.41;103444.00;5111373;28;20050;-30
2022/04/16 11:04:14;;;;;;;12.60;9.30;;;;;;;18.41;56.31;103443.72;5112174;28;20488;-33
2022/04/16 11:06:47;;;;;;;10.98;8.85;;;;;;;18.35;55.87;103442.06;5112599;28;20405;-34
2022/04/16 11:09:18;;;;;;;10.65;9.20;;;;;;;18.34;55.81;103446.03;5111788;28;20077;-28
2022/04/16 11:11:51;;;;;;;9.68;7.93;;;;;;;18.06;55.71;103444.69;5108891;28;20058;-32
2022/04/16 11:14:19;;;;;;;14.82;9.13;;;;;;;17.58;57.69;103440.53;5111425;28;20082;-27
2022/04/16 11:16:47;;;;;;;11.55;8.95;;;;;;;17.27;58.88;103450.97;5104502;28;20055;-27
2022/04/16 11:19:17;;;;;;;12.82;8.85;;;;;;;17.25;59.45;103441.94;5112267;28;20048;-27
2022/04/16 11:21:46;;;;;;;10.85;7.68;;;;;;;17.29;58.74;103436.59;5111098;28;20045;-31
2022/04/16 11:24:15;;;;;;;9.50;8.13;;;;;;;17.38;57.17;103437.72;5112130;28;20047;-27
2022/04/16 11:34:59;;;;;;;9.35;7.43;;;;;;;18.30;56.42;103439.25;5112051;28;20062;-34
2022/04/16 11:37:32;;;;;;;7.90;7.00;;;;;;;18.01;51.87;103439.06;5113307;28;20043;-27
2022/04/16 11:40:01;;;;;;;9.82;7.43;;;;;;;17.74;55.30;103435.75;5112997;28;20142;-32
2022/04/16 11:42:30;;;;;;;8.98;7.60;;;;;;;17.78;56.02;103442.53;5111467;28;20044;-29